createdAt,value
2023-11-21T00:00:36.794Z,1.50
2023-11-21T00:03:05.157Z,1.50
2023-11-21T00:05:32.200Z,1.50
2023-11-21T00:07:59.017Z,1.40
2023-11-21T00:10:25.883Z,1.40
2023-11-21T00:12:52.735Z,1.40
2023-11-21T00:15:19.808Z,1.40
2023-11-21T00:17:47.744Z,1.40
2023-11-21T00:20:15.057Z,1.40
2023-11-21T00:22:42.629Z,1.30
2023-11-21T00:25:10.299Z,1.30
2023-11-21T00:27:37.830Z,1.30
2023-11-21T00:30:08.488Z,1.30
2023-11-21T00:32:37.806Z,1.30
2023-11-21T00:35:05.061Z,1.30
2023-11-21T00:37:33.306Z,1.30
2023-11-21T00:40:00.324Z,1.20
2023-11-21T00:42:28.744Z,1.30
2023-11-21T00:44:55.597Z,1.20
2023-11-21T00:47:23.809Z,1.20
2023-11-21T00:49:50.838Z,1.20
2023-11-21T00:52:17.804Z,1.20
2023-11-21T00:54:45.993Z,1.20
2023-11-21T00:57:13.111Z,1.20
2023-11-21T00:59:40.114Z,1.20
2023-11-21T01:02:11.237Z,1.20
2023-11-21T01:04:38.805Z,1.20
2023-11-21T01:07:06.738Z,1.20
2023-11-21T01:09:33.787Z,1.20
2023-11-21T01:12:01.165Z,1.20
2023-11-21T01:14:28.715Z,1.10
2023-11-21T01:16:55.670Z,1.10
2023-11-21T01:19:22.868Z,1.10
2023-11-21T01:21:49.951Z,1.10
2023-11-21T01:24:16.841Z,1.10
2023-11-21T01:26:44.558Z,1.10
2023-11-21T01:29:11.413Z,1.10
2023-11-21T01:31:38.419Z,1.10
2023-11-21T01:34:05.910Z,1.00
2023-11-21T01:36:33.811Z,1.10
2023-11-21T01:39:01.301Z,1.10
2023-11-21T01:41:31.868Z,1.10
2023-11-21T01:43:59.255Z,1.10
2023-11-21T01:46:26.150Z,1.10
2023-11-21T01:48:54.366Z,1.10
2023-11-21T01:51:21.469Z,1.10
2023-11-21T01:53:48.430Z,1.00
2023-11-21T01:56:16.858Z,1.00
2023-11-21T01:58:44.653Z,1.00
2023-11-21T02:01:11.659Z,1.00
2023-11-21T02:03:38.708Z,1.00
2023-11-21T02:06:06.720Z,1.00
2023-11-21T02:08:34.091Z,1.00
2023-11-21T02:11:01.194Z,1.00
2023-11-21T02:13:28.116Z,1.00
2023-11-21T02:15:55.628Z,1.00
2023-11-21T02:18:23.344Z,1.00
2023-11-21T02:20:50.587Z,0.90
2023-11-21T02:23:17.457Z,0.90
2023-11-21T02:25:44.619Z,0.90
2023-11-21T02:28:14.196Z,0.90
2023-11-21T02:30:41.452Z,0.90
2023-11-21T02:33:08.439Z,0.90
2023-11-21T02:35:36.225Z,0.90
2023-11-21T02:38:03.299Z,0.90
2023-11-21T02:40:31.285Z,0.90
2023-11-21T02:43:00.445Z,0.90
2023-11-21T02:45:27.667Z,0.90
2023-11-21T02:47:55.156Z,0.90
2023-11-21T02:50:24.093Z,0.90
2023-11-21T02:52:52.452Z,0.90
2023-11-21T02:55:20.657Z,0.90
2023-11-21T02:57:47.520Z,0.90
2023-11-21T03:00:16.181Z,0.90
2023-11-21T03:02:43.747Z,0.90
2023-11-21T03:05:11.198Z,0.90
2023-11-21T03:07:39.699Z,0.90
2023-11-21T03:10:10.662Z,0.90
2023-11-21T03:12:38.928Z,0.90
2023-11-21T03:15:10.016Z,0.90
2023-11-21T03:17:38.198Z,1.00
2023-11-21T03:20:06.243Z,1.00
2023-11-21T03:22:33.287Z,1.00
2023-11-21T03:25:00.372Z,1.00
2023-11-21T03:27:27.701Z,1.00
2023-11-21T03:29:55.903Z,1.00
2023-11-21T03:32:23.080Z,0.90
2023-11-21T03:35:00.815Z,1.00
2023-11-21T03:37:29.213Z,1.00
2023-11-21T03:39:57.854Z,1.00
2023-11-21T03:42:27.869Z,1.00
2023-11-21T03:44:54.895Z,1.00
2023-11-21T03:47:21.873Z,1.00
2023-11-21T03:49:49.030Z,1.00
2023-11-21T03:52:17.198Z,0.90
2023-11-21T03:54:44.624Z,0.90
2023-11-21T03:57:12.659Z,1.00
2023-11-21T03:59:43.176Z,0.90
2023-11-21T04:02:10.089Z,0.90
2023-11-21T04:04:37.742Z,1.00
2023-11-21T04:07:05.535Z,0.90
2023-11-21T04:09:32.782Z,0.90
2023-11-21T04:11:59.926Z,0.90
2023-11-21T04:14:26.901Z,0.90
2023-11-21T04:16:54.837Z,0.90
2023-11-21T04:19:22.140Z,0.90
2023-11-21T04:21:49.189Z,0.90
2023-11-21T04:24:16.122Z,0.90
2023-11-21T04:26:42.951Z,0.90
2023-11-21T04:29:09.741Z,0.90
2023-11-21T04:31:36.640Z,0.90
2023-11-21T04:34:05.259Z,0.90
2023-11-21T04:36:32.422Z,1.00
2023-11-21T04:38:59.573Z,1.00
2023-11-21T04:41:26.398Z,1.00
2023-11-21T04:43:53.333Z,1.00
2023-11-21T04:46:20.329Z,1.00
2023-11-21T04:48:48.133Z,1.00
2023-11-21T04:51:15.426Z,1.00
2023-11-21T04:53:42.388Z,1.00
2023-11-21T04:56:09.366Z,1.00
2023-11-21T04:58:36.852Z,1.00
2023-11-21T05:01:07.193Z,1.00
2023-11-21T05:03:35.863Z,1.00
2023-11-21T05:06:03.318Z,1.10
2023-11-21T05:08:30.226Z,1.10
2023-11-21T05:10:57.153Z,1.10
2023-11-21T05:13:28.475Z,1.10
2023-11-21T05:15:58.863Z,1.00
2023-11-21T05:18:28.364Z,1.00
2023-11-21T05:20:55.358Z,1.10
2023-11-21T05:23:22.383Z,1.10
2023-11-21T05:25:49.307Z,1.10
2023-11-21T05:28:16.175Z,1.10
2023-11-21T05:30:43.060Z,1.10
2023-11-21T05:33:10.024Z,1.10
2023-11-21T05:35:37.132Z,1.10
2023-11-21T05:38:03.944Z,1.10
2023-11-21T05:40:31.247Z,1.10
2023-11-21T05:42:58.236Z,1.10
2023-11-21T05:45:25.103Z,1.10
2023-11-21T05:47:52.064Z,1.00
2023-11-21T05:50:19.549Z,1.10
2023-11-21T05:52:47.927Z,1.00
2023-11-21T05:55:15.339Z,1.10
2023-11-21T05:57:44.521Z,1.00
2023-11-21T06:00:23.176Z,1.00
2023-11-21T06:02:54.813Z,1.00
2023-11-21T06:05:26.882Z,1.00
2023-11-21T06:07:56.409Z,1.00
2023-11-21T06:10:25.232Z,0.90
2023-11-21T06:12:53.138Z,1.00
2023-11-21T06:15:24.446Z,1.00
2023-11-21T06:17:54.165Z,1.00
2023-11-21T06:20:22.201Z,0.90
2023-11-21T06:22:51.478Z,0.90
2023-11-21T06:25:19.041Z,0.90
2023-11-21T06:27:49.377Z,0.90
2023-11-21T06:30:17.243Z,0.90
2023-11-21T06:32:48.028Z,0.90
2023-11-21T06:35:16.904Z,0.90
2023-11-21T06:37:49.075Z,1.00
2023-11-21T06:40:16.741Z,1.00
2023-11-21T06:42:45.450Z,1.00
2023-11-21T06:45:12.409Z,1.00
2023-11-21T06:47:41.049Z,1.00
2023-11-21T06:50:08.431Z,1.00
2023-11-21T06:52:35.401Z,1.10
2023-11-21T06:55:02.582Z,1.10
2023-11-21T06:57:29.434Z,1.20
2023-11-21T06:59:58.596Z,1.20
2023-11-21T07:02:25.709Z,1.20
2023-11-21T07:04:52.747Z,1.20
2023-11-21T07:07:20.498Z,1.20
2023-11-21T07:09:47.533Z,1.30
2023-11-21T07:12:15.109Z,1.30
2023-11-21T07:14:44.364Z,1.20
2023-11-21T07:17:13.065Z,1.30
2023-11-21T07:19:40.656Z,1.30
2023-11-21T07:22:07.643Z,1.30
2023-11-21T07:24:34.816Z,1.30
2023-11-21T07:27:02.047Z,1.30
2023-11-21T07:29:31.005Z,1.30
2023-11-21T07:31:58.169Z,1.30
2023-11-21T07:34:25.244Z,1.30
2023-11-21T07:36:52.432Z,1.20
2023-11-21T07:39:19.316Z,1.20
2023-11-21T07:41:49.822Z,1.20
2023-11-21T07:44:18.806Z,1.20
2023-11-21T07:46:46.014Z,1.20
2023-11-21T07:49:17.050Z,1.20
2023-11-21T07:51:45.256Z,1.20
2023-11-21T07:54:12.745Z,1.20
2023-11-21T07:56:39.668Z,1.20
2023-11-21T07:59:06.664Z,1.20
2023-11-21T08:01:34.272Z,1.20
2023-11-21T08:04:04.986Z,1.20
2023-11-21T08:06:32.459Z,1.30
2023-11-21T08:09:00.079Z,1.30
2023-11-21T08:11:30.353Z,1.30
2023-11-21T08:13:57.993Z,1.30
2023-11-21T08:16:25.404Z,1.30
2023-11-21T08:18:52.693Z,1.30
2023-11-21T08:21:20.329Z,1.40
2023-11-21T08:23:48.333Z,1.40
2023-11-21T08:26:17.882Z,1.40
2023-11-21T08:28:44.760Z,1.40
2023-11-21T08:31:13.340Z,1.40
2023-11-21T08:33:41.305Z,1.40
2023-11-21T08:36:09.998Z,1.50
2023-11-21T08:38:38.932Z,1.50
2023-11-21T08:41:10.397Z,1.50
2023-11-21T08:43:40.677Z,1.50
2023-11-21T08:46:07.986Z,1.50
2023-11-21T08:48:37.028Z,1.50
2023-11-21T08:51:05.769Z,1.50
2023-11-21T08:53:32.588Z,1.50
2023-11-21T08:55:59.812Z,1.50
2023-11-21T08:58:26.801Z,1.50
2023-11-21T09:00:53.777Z,1.40
2023-11-21T09:03:20.815Z,1.40
2023-11-21T09:05:47.722Z,1.40
2023-11-21T09:08:14.689Z,1.40
2023-11-21T09:10:43.440Z,1.30
2023-11-21T09:13:11.337Z,1.30
2023-11-21T09:15:38.332Z,1.30
2023-11-21T09:18:06.359Z,1.30
2023-11-21T09:20:33.795Z,1.20
2023-11-21T09:23:00.705Z,1.20
2023-11-21T09:25:27.665Z,1.20
2023-11-21T09:27:54.509Z,1.20
2023-11-21T09:30:21.353Z,1.20
2023-11-21T09:32:48.615Z,1.20
2023-11-21T09:35:16.281Z,1.20
2023-11-21T09:37:46.406Z,1.10
2023-11-21T09:40:15.422Z,1.20
2023-11-21T09:42:49.024Z,1.20
2023-11-21T09:45:30.383Z,1.20
2023-11-21T09:47:58.516Z,1.30
2023-11-21T09:50:27.608Z,1.20
2023-11-21T09:53:16.279Z,1.20
2023-11-21T09:55:47.860Z,1.30
2023-11-21T09:58:15.980Z,1.30
2023-11-21T10:00:47.722Z,1.30
2023-11-21T10:03:16.046Z,1.30
2023-11-21T10:05:51.223Z,1.30
2023-11-21T10:08:18.633Z,1.30
2023-11-21T10:10:47.224Z,1.20
2023-11-21T10:13:18.319Z,1.30
2023-11-21T10:15:50.933Z,1.30
2023-11-21T10:18:18.858Z,1.30
2023-11-21T10:20:53.710Z,1.30
2023-11-21T10:23:25.194Z,1.30
2023-11-21T10:25:54.020Z,1.30
2023-11-21T10:28:22.322Z,1.30
2023-11-21T10:30:49.573Z,1.30
2023-11-21T10:33:16.526Z,1.30
2023-11-21T10:35:48.399Z,1.30
2023-11-21T10:38:15.672Z,1.30
2023-11-21T10:40:43.508Z,1.30
2023-11-21T10:43:11.076Z,1.30
2023-11-21T10:45:41.981Z,1.30
2023-11-21T10:48:16.761Z,1.30
2023-11-21T10:50:48.139Z,1.30
2023-11-21T10:53:15.771Z,1.30
2023-11-21T10:55:45.123Z,1.30
2023-11-21T10:58:15.064Z,1.30
2023-11-21T11:00:42.268Z,1.30
2023-11-21T11:03:16.451Z,1.30
2023-11-21T11:05:53.389Z,1.30
2023-11-21T11:08:28.132Z,1.30
2023-11-21T11:10:56.617Z,1.40
2023-11-21T11:13:24.384Z,1.40
2023-11-21T11:15:52.325Z,1.40
2023-11-21T11:18:22.418Z,1.50
2023-11-21T11:20:52.637Z,1.50
2023-11-21T11:23:34.888Z,1.50
2023-11-21T11:26:28.857Z,1.50
2023-11-21T11:29:47.984Z,1.50
2023-11-21T11:32:28.849Z,1.50
2023-11-21T11:35:05.072Z,1.50
2023-11-21T11:37:32.251Z,1.60
2023-11-21T11:40:01.224Z,1.60
2023-11-21T11:42:28.230Z,1.60
2023-11-21T11:44:57.582Z,1.60
2023-11-21T11:47:27.067Z,1.70
2023-11-21T11:50:21.256Z,1.80
2023-11-21T11:52:53.989Z,1.80
2023-11-21T11:55:22.692Z,1.90
2023-11-21T11:57:57.771Z,1.90
2023-11-21T12:00:47.429Z,1.80
2023-11-21T12:03:14.892Z,1.80
2023-11-21T12:05:45.081Z,1.80
2023-11-21T12:08:12.843Z,1.80
2023-11-21T12:10:40.994Z,1.80
2023-11-21T12:13:14.666Z,1.70
2023-11-21T12:15:42.920Z,1.80
2023-11-21T12:18:10.923Z,1.80
2023-11-21T12:20:40.441Z,1.80
2023-11-21T12:23:10.094Z,1.80
2023-11-21T12:25:38.099Z,1.80
2023-11-21T12:28:05.154Z,1.80
2023-11-21T12:30:36.777Z,1.80
2023-11-21T12:33:05.307Z,1.70
2023-11-21T12:35:37.585Z,1.70
2023-11-21T12:38:06.181Z,1.70
2023-11-21T12:40:33.436Z,1.60
2023-11-21T12:43:02.483Z,1.60
2023-11-21T12:45:30.528Z,1.60
2023-11-21T12:48:09.025Z,1.70
2023-11-21T12:50:37.745Z,1.70
2023-11-21T12:53:14.090Z,1.70
2023-11-21T12:55:43.131Z,1.80
2023-11-21T12:58:12.752Z,1.80
2023-11-21T13:00:43.910Z,1.90
2023-11-21T13:03:18.569Z,1.90
2023-11-21T13:05:54.812Z,2.00
2023-11-21T13:08:24.955Z,2.00
2023-11-21T13:10:57.822Z,2.00
2023-11-21T13:13:27.197Z,2.10
2023-11-21T13:16:01.641Z,2.10
2023-11-21T13:18:30.076Z,2.20
2023-11-21T13:20:59.281Z,2.30
2023-11-21T13:23:27.559Z,2.30
2023-11-21T13:26:02.175Z,2.40
2023-11-21T13:28:34.783Z,2.40
2023-11-21T13:31:10.466Z,2.40
2023-11-21T13:33:44.154Z,2.50
2023-11-21T13:36:12.070Z,2.40
2023-11-21T13:38:43.559Z,2.50
2023-11-21T13:41:13.578Z,2.50
2023-11-21T13:43:40.867Z,2.50
2023-11-21T13:46:22.644Z,2.50
2023-11-21T13:48:57.566Z,2.50
2023-11-21T13:51:38.647Z,2.40
2023-11-21T13:54:10.256Z,2.40
2023-11-21T13:56:38.308Z,2.40
2023-11-21T13:59:15.944Z,2.40
2023-11-21T14:01:55.503Z,2.40
2023-11-21T14:04:40.854Z,2.40
2023-11-21T14:07:26.206Z,2.40
2023-11-21T14:09:53.930Z,2.40
2023-11-21T14:12:22.653Z,2.40
2023-11-21T14:14:50.039Z,2.40
2023-11-21T14:17:16.947Z,2.40
2023-11-21T14:19:45.258Z,2.40
2023-11-21T14:22:12.536Z,2.30
2023-11-21T14:24:44.976Z,2.30
2023-11-21T14:27:12.000Z,2.30
2023-11-21T14:29:40.841Z,2.30
2023-11-21T14:32:08.969Z,2.20
2023-11-21T14:34:36.025Z,2.20
2023-11-21T14:37:04.116Z,2.20
2023-11-21T14:39:31.094Z,2.10
2023-11-21T14:41:59.246Z,2.10
2023-11-21T14:44:30.105Z,2.10
2023-11-21T14:46:59.065Z,2.10
2023-11-21T14:49:29.187Z,2.10
2023-11-21T14:51:59.124Z,2.10
2023-11-21T14:54:40.910Z,2.10
2023-11-21T14:57:12.771Z,2.00
2023-11-21T14:59:51.915Z,2.10
2023-11-21T15:02:23.963Z,2.00
2023-11-21T15:04:54.172Z,2.00
2023-11-21T15:07:21.733Z,2.00
2023-11-21T15:09:50.630Z,2.00
2023-11-21T15:12:17.799Z,2.00
2023-11-21T15:14:53.277Z,2.10
2023-11-21T15:17:27.134Z,2.10
2023-11-21T15:19:55.077Z,2.20
2023-11-21T15:22:22.804Z,2.20
2023-11-21T15:24:50.586Z,2.30
2023-11-21T15:27:18.717Z,2.30
2023-11-21T15:29:45.885Z,2.30
2023-11-21T15:32:13.364Z,2.30
2023-11-21T15:34:40.752Z,2.30
2023-11-21T15:37:11.880Z,2.30
2023-11-21T15:39:42.759Z,2.20
2023-11-21T15:42:11.014Z,2.10
2023-11-21T15:44:38.549Z,2.10
2023-11-21T15:47:07.569Z,2.00
2023-11-21T15:49:37.095Z,1.90
2023-11-21T15:52:10.914Z,1.80
2023-11-21T15:54:39.344Z,1.80
2023-11-21T15:57:07.485Z,1.70
2023-11-21T15:59:35.114Z,1.70
2023-11-21T16:02:06.042Z,1.60
2023-11-21T16:04:33.538Z,1.50
2023-11-21T16:07:00.789Z,1.40
2023-11-21T16:09:33.792Z,1.40
2023-11-21T16:12:06.726Z,1.30
2023-11-21T16:14:42.981Z,1.30
2023-11-21T16:17:11.334Z,1.20
2023-11-21T16:19:41.394Z,1.20
2023-11-21T16:22:08.273Z,1.10
2023-11-21T16:24:35.186Z,1.10
2023-11-21T16:27:03.551Z,1.10
2023-11-21T16:29:34.417Z,1.10
2023-11-21T16:32:01.636Z,1.00
2023-11-21T16:34:29.513Z,1.00
2023-11-21T16:36:59.829Z,0.90
2023-11-21T16:39:26.835Z,0.90
2023-11-21T16:41:54.019Z,0.80
2023-11-21T16:44:22.222Z,0.80
2023-11-21T16:46:54.931Z,0.70
2023-11-21T16:49:22.131Z,0.70
2023-11-21T16:51:49.342Z,0.70
2023-11-21T16:54:16.513Z,0.70
2023-11-21T16:56:46.725Z,0.60
2023-11-21T16:59:14.236Z,0.60
2023-11-21T17:01:41.162Z,0.60
2023-11-21T17:04:09.832Z,0.60
2023-11-21T17:06:37.295Z,0.50
2023-11-21T17:09:05.420Z,0.50
2023-11-21T17:11:32.520Z,0.60
2023-11-21T17:14:00.279Z,0.60
2023-11-21T17:16:27.329Z,0.60
2023-11-21T17:18:54.237Z,0.70
2023-11-21T17:21:26.336Z,0.70
2023-11-21T17:23:59.925Z,0.80
2023-11-21T17:26:26.784Z,0.80
2023-11-21T17:28:55.375Z,0.80
2023-11-21T17:31:23.539Z,0.90
2023-11-21T17:33:50.407Z,0.80
2023-11-21T17:36:17.244Z,0.80
2023-11-21T17:38:44.104Z,0.80
2023-11-21T17:41:12.633Z,0.80
2023-11-21T17:43:42.729Z,0.80
2023-11-21T17:46:09.975Z,0.80
2023-11-21T17:48:39.246Z,0.80
2023-11-21T17:51:06.719Z,0.80
2023-11-21T17:53:33.642Z,0.80
2023-11-21T17:56:00.714Z,0.80
2023-11-21T17:58:27.659Z,0.80
2023-11-21T18:00:54.612Z,0.80
2023-11-21T18:03:21.886Z,0.80
2023-11-21T18:05:49.032Z,0.80
2023-11-21T18:08:16.212Z,0.80
2023-11-21T18:10:43.276Z,0.80
2023-11-21T18:13:11.530Z,0.80
2023-11-21T18:15:39.635Z,0.80
2023-11-21T18:18:06.796Z,0.70
2023-11-21T18:20:33.743Z,0.70
2023-11-21T18:23:00.765Z,0.70
2023-11-21T18:25:29.883Z,0.60
2023-11-21T18:27:56.957Z,0.60
2023-11-21T18:30:23.944Z,0.60
2023-11-21T18:32:50.917Z,0.50
2023-11-21T18:35:17.951Z,0.50
2023-11-21T18:37:47.448Z,0.40
2023-11-21T18:40:16.711Z,0.40
2023-11-21T18:42:46.677Z,0.50
2023-11-21T18:45:13.942Z,0.50
2023-11-21T18:47:40.859Z,0.60
2023-11-21T18:50:09.730Z,0.60
2023-11-21T18:52:36.691Z,0.70
2023-11-21T18:55:04.283Z,0.70
2023-11-21T18:57:32.408Z,0.70
2023-11-21T18:59:59.427Z,0.70
2023-11-21T19:02:27.145Z,0.70
2023-11-21T19:04:54.339Z,0.60
2023-11-21T19:07:23.536Z,0.60
2023-11-21T19:09:52.611Z,0.60
2023-11-21T19:12:19.706Z,0.50
2023-11-21T19:14:48.314Z,0.50
2023-11-21T19:17:15.379Z,0.50
2023-11-21T19:19:42.320Z,0.50
2023-11-21T19:22:09.278Z,0.40
2023-11-21T19:24:36.217Z,0.50
2023-11-21T19:27:06.575Z,0.50
2023-11-21T19:29:35.196Z,0.50
2023-11-21T19:32:02.174Z,0.50
2023-11-21T19:34:30.934Z,0.50
2023-11-21T19:36:59.108Z,0.50
2023-11-21T19:39:25.946Z,0.50
2023-11-21T19:41:53.127Z,0.50
2023-11-21T19:44:20.133Z,0.50
2023-11-21T19:46:48.060Z,0.50
2023-11-21T19:49:16.240Z,0.50
2023-11-21T19:51:43.102Z,0.50
2023-11-21T19:54:09.951Z,0.60
2023-11-21T19:56:39.109Z,0.50
2023-11-21T19:59:06.073Z,0.60
2023-11-21T20:01:32.986Z,0.60
2023-11-21T20:03:59.888Z,0.60
2023-11-21T20:06:26.837Z,0.60
2023-11-21T20:08:54.408Z,0.70
2023-11-21T20:11:22.563Z,0.60
2023-11-21T20:13:50.827Z,0.60
2023-11-21T20:16:19.554Z,0.70
2023-11-21T20:18:47.542Z,0.70
2023-11-21T20:21:20.703Z,0.70
2023-11-21T20:23:48.819Z,0.70
2023-11-21T20:26:25.577Z,0.70
2023-11-21T20:28:54.046Z,0.80
2023-11-21T20:31:21.562Z,0.80
2023-11-21T20:33:51.562Z,0.80
2023-11-21T20:36:21.417Z,0.80
2023-11-21T20:38:48.499Z,0.80
2023-11-21T20:41:15.767Z,0.90
2023-11-21T20:43:42.764Z,1.00
2023-11-21T20:46:10.081Z,1.00
2023-11-21T20:48:37.116Z,1.10
2023-11-21T20:51:05.111Z,1.10
2023-11-21T20:53:33.198Z,1.20
2023-11-21T20:56:02.578Z,1.20
2023-11-21T20:58:29.690Z,1.20
2023-11-21T21:00:56.685Z,1.20
2023-11-21T21:03:25.243Z,1.10
2023-11-21T21:05:52.248Z,1.10
2023-11-21T21:08:19.146Z,1.10
2023-11-21T21:10:46.113Z,1.10
2023-11-21T21:13:14.900Z,1.20
2023-11-21T21:15:41.938Z,1.20
2023-11-21T21:18:09.210Z,1.20
2023-11-21T21:20:37.246Z,1.10
2023-11-21T21:23:04.274Z,1.10
2023-11-21T21:25:32.058Z,1.10
2023-11-21T21:28:00.705Z,1.10
2023-11-21T21:30:29.100Z,1.20
2023-11-21T21:33:01.492Z,1.20
2023-11-21T21:35:30.056Z,1.20
2023-11-21T21:38:00.707Z,1.20
2023-11-21T21:40:28.715Z,1.20
2023-11-21T21:42:59.651Z,1.20
2023-11-21T21:45:27.938Z,1.20
2023-11-21T21:47:55.834Z,1.20
2023-11-21T21:50:25.994Z,1.20
2023-11-21T21:52:57.414Z,1.10
2023-11-21T21:55:28.499Z,1.20
2023-11-21T21:57:55.558Z,1.10
2023-11-21T22:00:24.573Z,1.10
2023-11-21T22:02:51.733Z,1.10
2023-11-21T22:05:19.167Z,1.10
2023-11-21T22:07:46.162Z,1.10
2023-11-21T22:10:13.079Z,1.10
2023-11-21T22:12:39.989Z,1.10
2023-11-21T22:15:07.369Z,1.10
2023-11-21T22:17:34.943Z,1.10
2023-11-21T22:20:02.127Z,1.10
2023-11-21T22:22:29.213Z,1.10
2023-11-21T22:24:56.116Z,1.10
2023-11-21T22:27:22.966Z,1.10
2023-11-21T22:29:50.303Z,1.10
2023-11-21T22:32:17.531Z,1.10
2023-11-21T22:34:44.434Z,1.10
2023-11-21T22:37:11.289Z,1.00
2023-11-21T22:39:38.175Z,1.00
2023-11-21T22:42:05.367Z,1.10
2023-11-21T22:44:32.333Z,1.10
2023-11-21T22:47:01.707Z,1.10
2023-11-21T22:49:31.929Z,1.10
2023-11-21T22:51:59.607Z,1.20
2023-11-21T22:54:28.119Z,1.10
2023-11-21T22:56:55.162Z,1.10
2023-11-21T22:59:22.055Z,1.20
2023-11-21T23:01:51.119Z,1.10
2023-11-21T23:04:19.704Z,1.10
2023-11-21T23:06:48.143Z,1.10
2023-11-21T23:09:17.034Z,1.10
2023-11-21T23:11:44.615Z,1.00
2023-11-21T23:14:11.612Z,1.00
2023-11-21T23:16:39.041Z,1.00
2023-11-21T23:19:06.047Z,1.00
2023-11-21T23:21:35.650Z,1.00
2023-11-21T23:24:10.487Z,0.90
2023-11-21T23:26:39.643Z,0.90
2023-11-21T23:29:07.521Z,0.90
2023-11-21T23:31:34.548Z,0.90
2023-11-21T23:34:02.655Z,0.80
2023-11-21T23:36:29.709Z,0.80
2023-11-21T23:38:56.556Z,0.80
2023-11-21T23:41:24.486Z,0.70
2023-11-21T23:43:51.653Z,0.70
2023-11-21T23:46:19.042Z,0.70
2023-11-21T23:48:46.876Z,0.70
2023-11-21T23:51:14.431Z,0.60
2023-11-21T23:53:41.552Z,0.60
2023-11-21T23:56:09.145Z,0.60
2023-11-21T23:58:40.146Z,0.50
